Time;durP1;ratioP1;P1;durP2;ratioP2;P2;SDS_P1;SDS_P2;PMS_P1;PMS_P2;Temp;Humidity;BMP_temperature;BMP_pressure;BME280_temperature;BME280_humidity;BME280_pressure;Samples;Min_cycle;Max_cycle;Signal;HPM_P1;HPM_P2
2021/10/05 00:00:41;;;;;;;18.60;11.88;;;;;;;;;;5003194;28;20600;-72
2021/10/05 00:03:06;;;;;;;14.13;10.80;;;;;;;;;;4998367;28;20049;-72
2021/10/05 00:05:32;;;;;;;16.42;12.43;;;;;;;;;;4991001;28;20022;-71
2021/10/05 00:07:57;;;;;;;16.65;12.45;;;;;;;;;;4997041;28;20030;-72
2021/10/05 00:10:23;;;;;;;14.98;10.80;;;;;;;;;;4994269;28;20018;-72
2021/10/05 00:12:48;;;;;;;14.77;11.82;;;;;;;;;;4994624;28;20092;-72
2021/10/05 00:15:13;;;;;;;14.43;11.40;;;;;;;;;;4993619;28;20045;-71
2021/10/05 00:17:39;;;;;;;14.75;10.68;;;;;;;;;;4993560;28;20551;-71
2021/10/05 00:20:05;;;;;;;13.80;10.20;;;;;;;;;;4997000;28;20022;-72
2021/10/05 00:22:31;;;;;;;14.63;11.00;;;;;;;;;;4997308;28;20540;-71
2021/10/05 00:24:56;;;;;;;13.57;10.30;;;;;;;;;;4995221;28;20026;-70
2021/10/05 00:27:21;;;;;;;14.55;10.02;;;;;;;;;;4993033;28;20042;-71
2021/10/05 00:29:46;;;;;;;14.88;10.98;;;;;;;;;;4990531;28;20023;-70
2021/10/05 00:32:11;;;;;;;15.90;11.65;;;;;;;;;;4994438;28;20030;-71
2021/10/05 00:34:37;;;;;;;16.45;12.10;;;;;;;;;;4997452;28;20060;-71
2021/10/05 00:37:02;;;;;;;16.13;12.30;;;;;;;;;;5001989;28;20037;-72
2021/10/05 00:39:27;;;;;;;15.40;11.27;;;;;;;;;;4996464;28;20030;-71
2021/10/05 00:41:53;;;;;;;18.42;12.82;;;;;;;;;;4997304;28;20430;-71
2021/10/05 00:44:47;;;;;;;16.20;12.20;;;;;;;;;;4998876;28;20101;-70
2021/10/05 00:47:13;;;;;;;14.80;10.57;;;;;;;;;;5006519;28;20372;-72
2021/10/05 00:49:40;;;;;;;16.45;11.73;;;;;;;;;;5007008;28;20033;-71
2021/10/05 00:52:06;;;;;;;13.57;10.55;;;;;;;;;;5006166;28;20030;-73
2021/10/05 00:54:32;;;;;;;15.88;10.77;;;;;;;;;;5002204;28;20038;-72
2021/10/05 00:56:57;;;;;;;14.45;11.02;;;;;;;;;;5006471;28;20498;-72
2021/10/05 00:59:22;;;;;;;17.52;11.50;;;;;;;;;;5006033;28;20204;-71
2021/10/05 01:01:48;;;;;;;15.07;10.70;;;;;;;;;;5006575;28;20037;-70
2021/10/05 01:04:13;;;;;;;15.55;11.15;;;;;;;;;;5005809;28;20033;-71
2021/10/05 01:07:07;;;;;;;17.10;12.30;;;;;;;;;;5006298;28;20041;-71
2021/10/05 01:09:33;;;;;;;15.82;11.38;;;;;;;;;;4997395;28;20084;-70
2021/10/05 01:11:59;;;;;;;16.45;11.77;;;;;;;;;;5008284;28;20021;-71
2021/10/05 01:14:24;;;;;;;18.52;12.43;;;;;;;;;;5005995;28;20018;-73
2021/10/05 01:16:50;;;;;;;16.33;11.60;;;;;;;;;;5006018;28;20046;-72
2021/10/05 01:19:16;;;;;;;17.92;12.32;;;;;;;;;;5004288;28;20485;-72
2021/10/05 01:21:41;;;;;;;18.42;12.45;;;;;;;;;;5006199;28;20169;-71
2021/10/05 01:24:11;;;;;;;17.17;11.48;;;;;;;;;;5001993;28;20040;-72
2021/10/05 01:26:36;;;;;;;17.95;12.23;;;;;;;;;;4997005;28;20038;-71
2021/10/05 01:29:04;;;;;;;16.83;11.40;;;;;;;;;;4996206;28;20897;-72
2021/10/05 01:31:32;;;;;;;17.95;13.00;;;;;;;;;;4995995;28;20044;-71
2021/10/05 01:33:58;;;;;;;18.55;12.93;;;;;;;;;;4995844;28;20116;-72
2021/10/05 01:36:23;;;;;;;22.20;12.90;;;;;;;;;;4998267;28;20113;-71
2021/10/05 01:38:48;;;;;;;19.60;12.30;;;;;;;;;;5004471;28;20057;-71
2021/10/05 01:41:14;;;;;;;17.38;11.98;;;;;;;;;;5004464;28;20046;-72
2021/10/05 01:43:39;;;;;;;22.27;13.80;;;;;;;;;;4997398;28;20014;-72
2021/10/05 01:46:11;;;;;;;18.10;13.45;;;;;;;;;;4995677;28;20042;-71
2021/10/05 01:48:36;;;;;;;20.75;14.05;;;;;;;;;;5001580;28;20022;-72
2021/10/05 01:51:01;;;;;;;19.63;14.15;;;;;;;;;;4996545;28;20345;-71
2021/10/05 01:53:27;;;;;;;19.75;13.27;;;;;;;;;;4995389;28;20022;-70
2021/10/05 01:55:52;;;;;;;20.40;14.32;;;;;;;;;;5001164;28;20025;-71
2021/10/05 01:58:17;;;;;;;19.30;14.45;;;;;;;;;;5004444;28;20552;-71
2021/10/05 02:00:42;;;;;;;21.10;14.65;;;;;;;;;;5003687;28;20026;-71
2021/10/05 02:03:07;;;;;;;24.70;14.80;;;;;;;;;;4998134;28;20406;-70
2021/10/05 02:05:33;;;;;;;22.88;15.02;;;;;;;;;;4998328;28;20116;-71
2021/10/05 02:07:58;;;;;;;20.92;14.63;;;;;;;;;;5005092;28;20025;-71
2021/10/05 02:10:23;;;;;;;24.35;15.40;;;;;;;;;;5000537;28;20072;-71
2021/10/05 02:12:48;;;;;;;19.95;14.45;;;;;;;;;;5002796;28;20445;-71
2021/10/05 02:15:13;;;;;;;21.02;15.27;;;;;;;;;;4997669;28;20022;-73
2021/10/05 02:17:39;;;;;;;21.77;14.93;;;;;;;;;;4999185;28;20033;-71
2021/10/05 02:20:05;;;;;;;22.95;14.45;;;;;;;;;;4993606;28;20030;-72
2021/10/05 02:22:30;;;;;;;20.33;14.32;;;;;;;;;;4997782;28;20517;-70
2021/10/05 02:24:56;;;;;;;21.20;15.50;;;;;;;;;;4993824;28;20022;-71
2021/10/05 02:27:21;;;;;;;21.75;14.73;;;;;;;;;;5002264;28;20045;-71
2021/10/05 02:29:47;;;;;;;22.80;15.15;;;;;;;;;;5003207;28;20033;-70
2021/10/05 02:32:12;;;;;;;21.98;14.30;;;;;;;;;;5000438;28;20042;-72
2021/10/05 02:34:38;;;;;;;21.17;14.55;;;;;;;;;;4997465;28;20560;-71
2021/10/05 02:37:04;;;;;;;22.63;15.43;;;;;;;;;;4999397;28;20409;-71
2021/10/05 02:39:29;;;;;;;21.20;15.88;;;;;;;;;;5002317;28;20442;-71
2021/10/05 02:41:54;;;;;;;25.50;17.10;;;;;;;;;;5007198;28;20017;-72
2021/10/05 02:44:19;;;;;;;20.85;15.00;;;;;;;;;;4997855;28;20053;-71
2021/10/05 02:46:45;;;;;;;23.77;16.38;;;;;;;;;;4994624;28;20482;-70
2021/10/05 02:49:10;;;;;;;23.65;15.75;;;;;;;;;;4993801;28;20037;-71
2021/10/05 02:51:35;;;;;;;24.13;16.55;;;;;;;;;;4993656;28;20061;-71
2021/10/05 02:54:01;;;;;;;23.83;16.17;;;;;;;;;;5001492;28;20491;-70
2021/10/05 02:56:26;;;;;;;25.42;16.70;;;;;;;;;;4992904;28;20121;-71
2021/10/05 02:58:51;;;;;;;22.50;15.57;;;;;;;;;;4993905;28;20058;-71
2021/10/05 03:01:16;;;;;;;28.13;17.58;;;;;;;;;;5001712;28;20506;-72
2021/10/05 03:03:41;;;;;;;27.25;17.30;;;;;;;;;;4998342;28;20025;-70
2021/10/05 03:06:07;;;;;;;21.10;14.98;;;;;;;;;;4997961;28;20038;-72
2021/10/05 03:08:32;;;;;;;26.13;16.55;;;;;;;;;;5000180;28;20030;-70
2021/10/05 03:10:58;;;;;;;28.63;17.20;;;;;;;;;;5007428;28;20669;-70
2021/10/05 03:13:23;;;;;;;26.15;15.98;;;;;;;;;;4995261;28;20037;-71
2021/10/05 03:15:48;;;;;;;25.75;15.63;;;;;;;;;;4998260;28;20113;-70
2021/10/05 03:18:13;;;;;;;25.48;15.80;;;;;;;;;;5005809;28;20029;-71
2021/10/05 03:20:39;;;;;;;30.83;16.73;;;;;;;;;;5007171;28;20061;-71
2021/10/05 03:23:04;;;;;;;23.60;15.35;;;;;;;;;;4998366;28;20033;-71
2021/10/05 03:25:29;;;;;;;26.10;16.42;;;;;;;;;;4998248;28;20033;-71
2021/10/05 03:27:54;;;;;;;24.50;15.27;;;;;;;;;;4995964;28;20120;-71
2021/10/05 03:30:20;;;;;;;25.77;16.30;;;;;;;;;;4991936;28;20061;-72
2021/10/05 03:32:45;;;;;;;24.17;16.27;;;;;;;;;;5001100;28;20037;-70
2021/10/05 03:35:10;;;;;;;22.70;14.40;;;;;;;;;;5004113;28;20447;-71
2021/10/05 03:37:35;;;;;;;23.23;15.50;;;;;;;;;;4997364;28;20022;-72
2021/10/05 03:40:00;;;;;;;21.80;14.90;;;;;;;;;;5000671;28;20030;-70
2021/10/05 03:42:27;;;;;;;23.10;15.18;;;;;;;;;;5001393;28;20023;-70
2021/10/05 03:44:52;;;;;;;25.10;15.82;;;;;;;;;;4996333;28;20061;-71
2021/10/05 03:47:17;;;;;;;26.40;16.23;;;;;;;;;;4996536;28;20034;-70
2021/10/05 03:49:42;;;;;;;26.58;16.75;;;;;;;;;;4998002;28;20544;-71
2021/10/05 03:52:08;;;;;;;27.58;16.55;;;;;;;;;;4993341;28;20122;-72
2021/10/05 03:54:34;;;;;;;25.38;15.65;;;;;;;;;;5001335;28;20057;-71
2021/10/05 03:56:59;;;;;;;23.77;15.38;;;;;;;;;;4993857;28;20048;-71
2021/10/05 03:59:25;;;;;;;25.25;15.20;;;;;;;;;;4994736;28;20050;-70
2021/10/05 04:01:50;;;;;;;24.77;15.23;;;;;;;;;;4998711;28;20030;-71
2021/10/05 04:04:15;;;;;;;22.88;14.52;;;;;;;;;;5000537;28;20031;-71
2021/10/05 04:06:40;;;;;;;24.05;15.20;;;;;;;;;;4992013;28;20445;-71
2021/10/05 04:09:06;;;;;;;22.00;14.02;;;;;;;;;;4995106;28;20031;-70
2021/10/05 04:11:34;;;;;;;22.15;14.02;;;;;;;;;;5005548;28;20127;-71
2021/10/05 04:14:00;;;;;;;23.65;14.48;;;;;;;;;;4996108;28;20389;-71
2021/10/05 04:16:25;;;;;;;24.10;15.48;;;;;;;;;;5017754;28;20145;-71
2021/10/05 04:18:50;;;;;;;23.15;15.52;;;;;;;;;;5001990;28;20048;-71
2021/10/05 04:21:16;;;;;;;27.25;16.17;;;;;;;;;;4997744;28;20360;-71
2021/10/05 04:23:41;;;;;;;29.17;17.30;;;;;;;;;;4998709;28;20026;-72
2021/10/05 04:26:06;;;;;;;28.02;17.23;;;;;;;;;;4996488;28;20034;-71
2021/10/05 04:28:32;;;;;;;26.52;16.13;;;;;;;;;;5001729;28;20031;-71
2021/10/05 04:30:57;;;;;;;28.05;16.55;;;;;;;;;;5000092;28;20041;-71
2021/10/05 04:33:22;;;;;;;31.35;18.92;;;;;;;;;;4998368;28;20030;-72
2021/10/05 04:35:47;;;;;;;28.77;17.92;;;;;;;;;;5005547;28;20088;-71
2021/10/05 04:38:12;;;;;;;31.80;18.63;;;;;;;;;;5001880;28;20030;-70
2021/10/05 04:40:38;;;;;;;30.15;17.75;;;;;;;;;;5001248;28;20605;-70
2021/10/05 04:43:03;;;;;;;32.55;18.50;;;;;;;;;;4992750;28;20061;-72
2021/10/05 04:45:28;;;;;;;28.20;16.90;;;;;;;;;;4996549;28;20030;-71
2021/10/05 04:47:53;;;;;;;27.08;16.73;;;;;;;;;;5002817;28;20398;-69
2021/10/05 04:50:19;;;;;;;31.35;17.50;;;;;;;;;;4996920;28;20438;-61
2021/10/05 04:52:44;;;;;;;28.50;17.73;;;;;;;;;;4989785;28;20026;-60
2021/10/05 04:55:09;;;;;;;30.80;17.45;;;;;;;;;;4995194;28;20057;-61
2021/10/05 04:57:34;;;;;;;27.42;16.75;;;;;;;;;;4992566;28;20027;-62
2021/10/05 05:00:00;;;;;;;31.27;16.98;;;;;;;;;;4996132;28;20042;-61
2021/10/05 05:02:25;;;;;;;27.65;15.93;;;;;;;;;;4989662;28;20018;-61
2021/10/05 05:04:50;;;;;;;30.33;16.92;;;;;;;;;;5001024;28;20104;-61
2021/10/05 05:07:15;;;;;;;30.55;17.75;;;;;;;;;;4993335;28;20386;-61
2021/10/05 05:09:40;;;;;;;29.63;16.90;;;;;;;;;;4995010;28;20430;-60
2021/10/05 05:12:06;;;;;;;32.65;17.58;;;;;;;;;;4992622;28;20036;-60
2021/10/05 05:14:31;;;;;;;32.42;18.55;;;;;;;;;;4989344;28;20430;-62
2021/10/05 05:16:56;;;;;;;34.28;18.17;;;;;;;;;;4991892;28;20022;-61
2021/10/05 05:19:22;;;;;;;34.25;17.98;;;;;;;;;;4993700;28;20062;-61
2021/10/05 05:21:47;;;;;;;32.58;15.73;;;;;;;;;;4995566;28;20527;-62
2021/10/05 05:24:12;;;;;;;33.70;17.27;;;;;;;;;;4993531;28;20437;-61
2021/10/05 05:26:37;;;;;;;35.00;17.33;;;;;;;;;;5000979;28;20065;-61
2021/10/05 05:29:03;;;;;;;31.73;16.65;;;;;;;;;;5004352;28;20036;-61
2021/10/05 05:31:28;;;;;;;34.05;17.33;;;;;;;;;;4994560;28;20022;-61
2021/10/05 05:33:53;;;;;;;31.25;17.35;;;;;;;;;;4995174;28;20169;-60
2021/10/05 05:36:18;;;;;;;34.47;17.25;;;;;;;;;;4989101;28;20050;-61
2021/10/05 05:38:44;;;;;;;27.85;14.98;;;;;;;;;;4992152;28;20035;-61
2021/10/05 05:41:09;;;;;;;31.38;14.85;;;;;;;;;;4992653;28;20101;-61
2021/10/05 05:43:35;;;;;;;30.90;14.98;;;;;;;;;;5000763;28;20026;-60
2021/10/05 05:46:00;;;;;;;29.40;15.88;;;;;;;;;;5008336;28;20129;-61
2021/10/05 05:48:25;;;;;;;27.42;14.45;;;;;;;;;;4993327;28;20854;-61
2021/10/05 05:50:50;;;;;;;30.23;15.68;;;;;;;;;;5000759;28;20198;-61
2021/10/05 05:53:15;;;;;;;32.15;15.65;;;;;;;;;;4993990;28;20065;-61
2021/10/05 05:55:41;;;;;;;29.77;15.20;;;;;;;;;;4989642;28;20371;-60
2021/10/05 05:58:10;;;;;;;33.88;16.85;;;;;;;;;;4989086;28;20402;-60
2021/10/05 06:00:35;;;;;;;26.20;14.48;;;;;;;;;;4996277;28;20034;-62
2021/10/05 06:03:00;;;;;;;30.20;16.70;;;;;;;;;;5001797;28;20109;-60
2021/10/05 06:05:25;;;;;;;30.00;15.85;;;;;;;;;;5007833;28;20042;-60
2021/10/05 06:07:50;;;;;;;31.00;16.45;;;;;;;;;;5007747;28;20033;-61
2021/10/05 06:10:16;;;;;;;32.92;16.88;;;;;;;;;;5008389;28;20018;-61
2021/10/05 06:12:41;;;;;;;29.38;16.13;;;;;;;;;;4993449;28;20038;-61
2021/10/05 06:15:08;;;;;;;27.48;16.13;;;;;;;;;;4988891;28;20026;-61
2021/10/05 06:17:33;;;;;;;28.13;16.08;;;;;;;;;;4989160;28;20427;-60
2021/10/05 06:19:58;;;;;;;27.45;14.25;;;;;;;;;;4993694;28;20030;-61
2021/10/05 06:22:23;;;;;;;26.80;15.10;;;;;;;;;;5005055;28;20470;-61
2021/10/05 06:24:48;;;;;;;25.75;15.18;;;;;;;;;;4997511;28;20034;-61
2021/10/05 06:27:15;;;;;;;26.92;14.32;;;;;;;;;;4995289;28;20455;-61
2021/10/05 06:29:40;;;;;;;28.58;15.25;;;;;;;;;;4992435;28;20030;-60
2021/10/05 06:32:05;;;;;;;30.90;15.98;;;;;;;;;;4999010;28;20387;-62
2021/10/05 06:34:30;;;;;;;27.42;15.13;;;;;;;;;;4992805;28;20069;-61
2021/10/05 06:36:55;;;;;;;25.77;15.15;;;;;;;;;;4992377;28;20030;-61
2021/10/05 06:39:21;;;;;;;32.42;14.95;;;;;;;;;;4992068;28;20022;-61
2021/10/05 06:41:46;;;;;;;29.35;15.20;;;;;;;;;;5002346;28;20018;-63
2021/10/05 06:44:11;;;;;;;26.13;13.55;;;;;;;;;;5010860;28;20512;-61
2021/10/05 06:46:38;;;;;;;24.95;13.32;;;;;;;;;;5011435;28;20108;-62
2021/10/05 06:49:03;;;;;;;26.67;13.35;;;;;;;;;;5011098;28;20025;-62
2021/10/05 06:51:28;;;;;;;26.08;13.70;;;;;;;;;;5010967;28;20022;-61
2021/10/05 06:53:53;;;;;;;27.77;14.38;;;;;;;;;;5003547;28;20500;-62
2021/10/05 06:56:18;;;;;;;24.02;14.23;;;;;;;;;;4992330;28;20109;-61
2021/10/05 06:58:43;;;;;;;26.35;14.30;;;;;;;;;;4998317;28;20053;-61
2021/10/05 07:01:09;;;;;;;24.13;12.55;;;;;;;;;;5003473;28;20481;-62
2021/10/05 07:03:34;;;;;;;20.23;11.60;;;;;;;;;;4991708;28;20505;-62
2021/10/05 07:05:59;;;;;;;21.20;11.38;;;;;;;;;;4991885;28;20117;-62
2021/10/05 07:08:24;;;;;;;19.85;11.23;;;;;;;;;;4995465;28;20388;-60
2021/10/05 07:10:49;;;;;;;20.52;12.35;;;;;;;;;;5005498;28;20022;-62
2021/10/05 07:13:14;;;;;;;20.42;11.70;;;;;;;;;;5002616;28;20041;-62
2021/10/05 07:15:40;;;;;;;18.70;11.27;;;;;;;;;;4998828;28;20042;-63
2021/10/05 07:18:05;;;;;;;18.45;10.82;;;;;;;;;;4992941;28;20065;-62
2021/10/05 07:20:31;;;;;;;20.67;11.15;;;;;;;;;;4991774;28;20031;-63
2021/10/05 07:22:57;;;;;;;17.55;10.50;;;;;;;;;;4993995;28;20121;-61
2021/10/05 07:25:22;;;;;;;16.80;10.50;;;;;;;;;;4991333;28;20470;-61
2021/10/05 07:27:51;;;;;;;18.02;10.30;;;;;;;;;;5003777;28;20026;-62
2021/10/05 07:30:17;;;;;;;15.25;9.25;;;;;;;;;;5007577;28;20025;-61
2021/10/05 07:32:42;;;;;;;16.20;9.75;;;;;;;;;;5010200;28;20026;-62
2021/10/05 07:35:07;;;;;;;15.88;9.30;;;;;;;;;;4993953;28;20499;-61
2021/10/05 07:37:32;;;;;;;15.43;8.23;;;;;;;;;;4991244;28;20080;-62
2021/10/05 07:39:58;;;;;;;17.73;9.88;;;;;;;;;;4991470;28;20050;-61
2021/10/05 07:42:23;;;;;;;15.15;9.18;;;;;;;;;;4999185;28;20030;-62
2021/10/05 07:44:48;;;;;;;16.65;10.00;;;;;;;;;;5000072;28;20443;-61
2021/10/05 07:47:14;;;;;;;16.65;10.52;;;;;;;;;;4995497;28;20502;-61
2021/10/05 07:49:39;;;;;;;17.05;9.90;;;;;;;;;;4991181;28;20027;-61
2021/10/05 07:52:04;;;;;;;13.98;9.40;;;;;;;;;;4996835;28;20088;-62
2021/10/05 07:54:29;;;;;;;16.35;9.38;;;;;;;;;;4994168;28;20068;-61
2021/10/05 07:56:54;;;;;;;13.40;8.20;;;;;;;;;;4999322;28;20044;-60
2021/10/05 07:59:20;;;;;;;12.20;7.78;;;;;;;;;;5003826;28;20072;-61
2021/10/05 08:01:50;;;;;;;14.70;8.27;;;;;;;;;;4999006;28;20061;-61
2021/10/05 08:04:15;;;;;;;12.88;8.65;;;;;;;;;;4995694;28;20076;-60
2021/10/05 08:06:41;;;;;;;12.63;8.45;;;;;;;;;;4998603;28;20489;-61
2021/10/05 08:09:06;;;;;;;13.07;8.23;;;;;;;;;;4994104;28;20465;-61
2021/10/05 08:11:31;;;;;;;12.10;7.70;;;;;;;;;;5001633;28;20045;-61
2021/10/05 08:13:57;;;;;;;11.77;7.65;;;;;;;;;;5002195;28;20057;-61
2021/10/05 08:16:30;;;;;;;9.73;6.55;;;;;;;;;;5006195;28;20061;-61
2021/10/05 08:18:55;;;;;;;10.77;7.35;;;;;;;;;;5002436;28;20034;-61
2021/10/05 08:21:20;;;;;;;10.95;7.07;;;;;;;;;;4994809;28;20386;-61
2021/10/05 08:23:45;;;;;;;12.55;8.15;;;;;;;;;;4993769;28;20497;-60
2021/10/05 08:26:11;;;;;;;13.15;8.15;;;;;;;;;;4992822;28;20064;-62
2021/10/05 08:28:36;;;;;;;12.48;8.98;;;;;;;;;;4998692;28;20080;-61
2021/10/05 08:31:01;;;;;;;13.40;8.60;;;;;;;;;;4996047;28;20037;-60
2021/10/05 08:33:26;;;;;;;12.07;7.68;;;;;;;;;;4999197;28;20097;-61
2021/10/05 08:35:52;;;;;;;12.80;8.88;;;;;;;;;;4993529;28;20042;-62
2021/10/05 08:38:17;;;;;;;14.10;8.98;;;;;;;;;;5002080;28;20436;-61
2021/10/05 08:40:42;;;;;;;14.07;8.20;;;;;;;;;;5004353;28;20045;-62
2021/10/05 08:43:07;;;;;;;13.95;8.98;;;;;;;;;;4996917;28;20026;-60
2021/10/05 08:45:33;;;;;;;11.30;8.02;;;;;;;;;;4997775;28;20497;-62
2021/10/05 08:47:58;;;;;;;14.07;8.77;;;;;;;;;;4998288;28;20569;-61
2021/10/05 08:50:25;;;;;;;13.27;8.85;;;;;;;;;;4994842;28;20105;-61
2021/10/05 08:52:50;;;;;;;13.18;8.52;;;;;;;;;;4996401;28;20488;-61
2021/10/05 08:55:15;;;;;;;11.10;7.55;;;;;;;;;;4997552;28;20029;-61
2021/10/05 08:57:41;;;;;;;13.02;7.93;;;;;;;;;;4998533;28;20022;-62
2021/10/05 09:00:06;;;;;;;12.50;7.93;;;;;;;;;;5006751;28;20050;-60
2021/10/05 09:03:01;;;;;;;12.07;8.00;;;;;;;;;;5003035;28;20080;-62
2021/10/05 09:05:26;;;;;;;11.18;7.70;;;;;;;;;;5011589;28;20110;-61
2021/10/05 09:07:52;;;;;;;12.27;7.40;;;;;;;;;;5012076;28;20088;-60
2021/10/05 09:10:19;;;;;;;11.82;7.80;;;;;;;;;;5004722;28;20437;-61
2021/10/05 09:12:45;;;;;;;12.07;8.20;;;;;;;;;;5010484;28;20045;-61
2021/10/05 09:15:11;;;;;;;13.02;8.43;;;;;;;;;;5015663;28;20614;-61
2021/10/05 09:17:37;;;;;;;12.93;8.73;;;;;;;;;;5007707;28;20662;-61
2021/10/05 09:20:13;;;;;;;12.68;7.72;;;;;;;;;;5012139;28;20030;-61
2021/10/05 09:22:38;;;;;;;11.23;7.70;;;;;;;;;;5011825;28;20030;-61
2021/10/05 09:25:05;;;;;;;12.52;7.15;;;;;;;;;;5016956;28;20034;-60
2021/10/05 09:27:30;;;;;;;8.85;5.90;;;;;;;;;;5007575;28;20555;-61
2021/10/05 09:29:55;;;;;;;8.32;6.15;;;;;;;;;;4996997;28;20038;-61
2021/10/05 09:32:21;;;;;;;9.73;6.65;;;;;;;;;;5019033;28;20030;-61
2021/10/05 09:34:50;;;;;;;10.13;6.18;;;;;;;;;;5016499;28;20037;-62
2021/10/05 09:37:25;;;;;;;8.80;6.20;;;;;;;;;;5018940;28;20056;-62
2021/10/05 09:39:52;;;;;;;9.35;6.22;;;;;;;;;;5007035;28;20037;-61
2021/10/05 09:42:19;;;;;;;9.15;5.93;;;;;;;;;;4998763;28;20084;-62
2021/10/05 09:44:48;;;;;;;8.60;5.35;;;;;;;;;;4992517;28;20385;-62
2021/10/05 09:47:13;;;;;;;7.32;5.75;;;;;;;;;;5000589;28;20034;-62
2021/10/05 09:49:42;;;;;;;6.50;4.32;;;;;;;;;;4992007;28;20027;-61
2021/10/05 09:52:09;;;;;;;7.80;5.20;;;;;;;;;;4995748;28;20026;-64
2021/10/05 09:54:34;;;;;;;9.13;5.18;;;;;;;;;;4997859;28;20022;-62
2021/10/05 09:56:59;;;;;;;7.65;5.35;;;;;;;;;;4993746;28;20027;-62
2021/10/05 09:59:24;;;;;;;7.68;5.28;;;;;;;;;;4999113;28;20039;-62
2021/10/05 10:01:50;;;;;;;7.68;5.53;;;;;;;;;;4997885;28;20030;-62
2021/10/05 10:04:15;;;;;;;8.57;5.60;;;;;;;;;;5001486;28;20057;-63
2021/10/05 10:06:41;;;;;;;9.48;6.13;;;;;;;;;;4997377;28;20057;-62
2021/10/05 10:09:07;;;;;;;7.80;5.47;;;;;;;;;;5001451;28;20541;-61
2021/10/05 10:11:34;;;;;;;8.45;6.20;;;;;;;;;;4997385;28;20018;-61
2021/10/05 10:14:00;;;;;;;8.45;5.68;;;;;;;;;;4996022;28;20022;-61
2021/10/05 10:16:26;;;;;;;8.00;5.97;;;;;;;;;;5003327;28;20433;-60
2021/10/05 10:18:58;;;;;;;7.35;5.68;;;;;;;;;;5005720;28;20041;-61
2021/10/05 10:21:25;;;;;;;8.85;6.28;;;;;;;;;;5005821;28;20041;-62
2021/10/05 10:24:03;;;;;;;8.27;5.88;;;;;;;;;;4998585;28;20423;-61
2021/10/05 10:26:28;;;;;;;8.05;5.82;;;;;;;;;;4999653;28;20049;-61
2021/10/05 10:28:58;;;;;;;8.40;6.05;;;;;;;;;;4996958;28;20068;-61
2021/10/05 10:31:31;;;;;;;6.68;5.35;;;;;;;;;;5002907;28;20395;-60
2021/10/05 10:33:56;;;;;;;6.13;5.00;;;;;;;;;;5004809;28;20036;-61
2021/10/05 10:36:40;;;;;;;8.93;6.45;;;;;;;;;;4999171;28;20021;-61
2021/10/05 10:39:08;;;;;;;7.78;5.63;;;;;;;;;;4999984;28;20458;-60
2021/10/05 10:41:34;;;;;;;8.30;5.82;;;;;;;;;;4997899;28;20026;-61
2021/10/05 10:44:01;;;;;;;6.57;5.25;;;;;;;;;;4999699;28;20089;-60
2021/10/05 10:46:27;;;;;;;8.82;5.72;;;;;;;;;;5003777;28;20042;-61
2021/10/05 10:48:54;;;;;;;7.72;5.95;;;;;;;;;;5000401;28;20101;-61
2021/10/05 10:51:20;;;;;;;7.97;5.80;;;;;;;;;;5006801;28;20025;-61
2021/10/05 10:53:46;;;;;;;7.53;5.38;;;;;;;;;;5003600;28;20029;-60
2021/10/05 10:56:15;;;;;;;7.03;5.32;;;;;;;;;;5002825;28;20028;-61
2021/10/05 10:58:42;;;;;;;7.45;5.35;;;;;;;;;;4996706;28;20054;-60
2021/10/05 11:01:14;;;;;;;6.30;4.85;;;;;;;;;;4997314;28;20030;-60
2021/10/05 11:03:39;;;;;;;6.72;5.45;;;;;;;;;;4997309;28;20018;-61
2021/10/05 11:06:21;;;;;;;6.75;4.88;;;;;;;;;;5002824;28;20026;-61
2021/10/05 11:08:53;;;;;;;7.07;4.88;;;;;;;;;;4998415;28;20027;-61
2021/10/05 11:11:27;;;;;;;6.03;4.60;;;;;;;;;;4992939;28;20022;-61
2021/10/05 11:13:52;;;;;;;6.03;5.00;;;;;;;;;;5000843;28;20373;-61
2021/10/05 11:16:22;;;;;;;6.25;4.82;;;;;;;;;;4999985;28;20026;-61
2021/10/05 11:18:49;;;;;;;5.72;4.53;;;;;;;;;;4994468;28;20056;-61
2021/10/05 11:21:16;;;;;;;6.03;4.53;;;;;;;;;;4998113;28;20045;-61
2021/10/05 11:23:42;;;;;;;7.32;5.15;;;;;;;;;;4997047;28;20022;-62
2021/10/05 11:26:07;;;;;;;6.55;4.72;;;;;;;;;;4997919;28;20076;-60
2021/10/05 11:28:33;;;;;;;7.15;5.43;;;;;;;;;;4995580;28;20027;-61
2021/10/05 11:31:00;;;;;;;6.45;4.88;;;;;;;;;;5000276;28;20137;-60
2021/10/05 11:33:25;;;;;;;6.35;4.97;;;;;;;;;;4997356;28;20089;-62
2021/10/05 11:35:51;;;;;;;8.05;5.60;;;;;;;;;;4994268;28;20545;-61
2021/10/05 11:38:16;;;;;;;7.07;5.30;;;;;;;;;;5006987;28;20030;-61
2021/10/05 11:40:51;;;;;;;7.28;4.95;;;;;;;;;;4993558;28;20022;-61
2021/10/05 11:43:16;;;;;;;6.88;5.10;;;;;;;;;;5004087;28;20470;-61
2021/10/05 11:45:41;;;;;;;5.80;4.47;;;;;;;;;;4996562;28;20065;-61
2021/10/05 11:48:07;;;;;;;6.07;4.63;;;;;;;;;;4999306;28;20010;-61
2021/10/05 11:50:32;;;;;;;6.82;4.70;;;;;;;;;;5001918;28;20497;-60
2021/10/05 11:52:59;;;;;;;5.72;4.55;;;;;;;;;;5006800;28;20057;-61
2021/10/05 11:55:25;;;;;;;7.75;4.47;;;;;;;;;;4996024;28;20022;-62
2021/10/05 11:57:54;;;;;;;6.60;4.80;;;;;;;;;;4996570;28;20076;-61
2021/10/05 12:00:19;;;;;;;6.78;4.40;;;;;;;;;;5003055;28;20104;-61
2021/10/05 12:02:44;;;;;;;5.60;4.10;;;;;;;;;;5000569;28;20108;-61
2021/10/05 12:05:19;;;;;;;6.50;4.50;;;;;;;;;;5000720;28;20057;-60
2021/10/05 12:07:44;;;;;;;5.10;3.65;;;;;;;;;;4992231;28;20053;-61
2021/10/05 12:10:11;;;;;;;4.68;3.53;;;;;;;;;;4996269;28;20022;-61
2021/10/05 12:12:38;;;;;;;4.13;3.50;;;;;;;;;;5006493;28;20061;-61
2021/10/05 12:15:03;;;;;;;5.05;3.47;;;;;;;;;;4999821;28;20061;-61
2021/10/05 12:17:29;;;;;;;4.65;3.50;;;;;;;;;;4997935;28;20026;-62
2021/10/05 12:19:56;;;;;;;4.60;3.58;;;;;;;;;;5000066;28;20454;-61
2021/10/05 12:22:31;;;;;;;4.60;3.28;;;;;;;;;;4997824;28;20120;-61
2021/10/05 12:24:58;;;;;;;4.63;3.38;;;;;;;;;;5002711;28;20092;-62
2021/10/05 12:27:26;;;;;;;5.72;3.92;;;;;;;;;;4999933;28;20033;-62
2021/10/05 12:29:53;;;;;;;4.35;3.30;;;;;;;;;;4997664;28;20017;-62
2021/10/05 12:32:18;;;;;;;5.70;3.53;;;;;;;;;;4996004;28;20022;-61
2021/10/05 12:34:50;;;;;;;4.32;3.10;;;;;;;;;;5003819;28;20083;-63
2021/10/05 12:37:16;;;;;;;4.07;2.95;;;;;;;;;;5004365;28;20370;-60
2021/10/05 12:39:41;;;;;;;4.47;3.08;;;;;;;;;;4989998;28;20506;-61
2021/10/05 12:42:06;;;;;;;4.00;3.20;;;;;;;;;;5000081;28;20043;-62
2021/10/05 12:44:34;;;;;;;3.95;3.35;;;;;;;;;;4991156;28;20089;-61
2021/10/05 12:47:01;;;;;;;4.13;2.97;;;;;;;;;;5001585;28;20057;-60
2021/10/05 12:49:26;;;;;;;3.90;2.85;;;;;;;;;;4994994;28;20568;-62
2021/10/05 12:51:52;;;;;;;4.60;3.00;;;;;;;;;;4995034;28;20029;-61
2021/10/05 12:54:18;;;;;;;4.28;2.90;;;;;;;;;;4989206;28;20030;-61
2021/10/05 12:56:44;;;;;;;4.30;3.03;;;;;;;;;;4997487;28;20467;-61
2021/10/05 12:59:10;;;;;;;4.00;2.50;;;;;;;;;;4997079;28;20046;-63
2021/10/05 13:01:37;;;;;;;4.15;2.38;;;;;;;;;;4992583;28;20061;-61
2021/10/05 13:04:02;;;;;;;3.45;2.65;;;;;;;;;;4994003;28;20024;-62
2021/10/05 13:06:28;;;;;;;4.47;2.97;;;;;;;;;;4990707;28;20030;-60
2021/10/05 13:08:53;;;;;;;3.90;2.30;;;;;;;;;;5001104;28;20138;-61
2021/10/05 13:11:18;;;;;;;3.60;2.40;;;;;;;;;;4994787;28;20037;-61
2021/10/05 13:13:44;;;;;;;3.45;2.67;;;;;;;;;;4999001;28;20017;-62
2021/10/05 13:16:09;;;;;;;3.90;2.53;;;;;;;;;;4990388;28;20022;-63
2021/10/05 13:18:34;;;;;;;3.80;2.55;;;;;;;;;;4995426;28;20118;-63
2021/10/05 13:20:59;;;;;;;3.80;2.80;;;;;;;;;;4990326;28;20545;-61
2021/10/05 13:23:24;;;;;;;4.83;2.40;;;;;;;;;;4988555;28;20445;-62
2021/10/05 13:25:50;;;;;;;4.68;3.10;;;;;;;;;;4993461;28;20301;-62
2021/10/05 13:28:16;;;;;;;4.15;2.80;;;;;;;;;;4991304;28;20048;-62
2021/10/05 13:30:41;;;;;;;4.72;2.80;;;;;;;;;;4992327;28;20037;-62
2021/10/05 13:33:06;;;;;;;3.95;2.90;;;;;;;;;;4997073;28;20121;-62
2021/10/05 13:35:32;;;;;;;4.47;2.95;;;;;;;;;;4994404;28;20027;-63
2021/10/05 13:37:57;;;;;;;3.75;2.60;;;;;;;;;;4992305;28;20014;-62
2021/10/05 13:40:24;;;;;;;3.42;2.53;;;;;;;;;;4999833;28;20030;-61
2021/10/05 13:42:49;;;;;;;3.30;2.50;;;;;;;;;;4998663;28;20025;-62
2021/10/05 13:45:14;;;;;;;4.18;2.50;;;;;;;;;;4997620;28;20411;-63
2021/10/05 13:47:39;;;;;;;3.67;2.42;;;;;;;;;;4998093;28;20084;-63
2021/10/05 13:50:05;;;;;;;3.10;2.35;;;;;;;;;;5003731;28;20029;-62
2021/10/05 13:52:30;;;;;;;3.85;2.50;;;;;;;;;;5000775;28;20054;-63
2021/10/05 13:54:55;;;;;;;2.85;2.20;;;;;;;;;;5002405;28;20022;-63
2021/10/05 13:57:20;;;;;;;4.13;2.65;;;;;;;;;;5003412;28;20034;-63
2021/10/05 13:59:46;;;;;;;3.15;2.17;;;;;;;;;;5001096;28;20042;-62
2021/10/05 14:02:11;;;;;;;3.58;2.38;;;;;;;;;;5002809;28;20036;-63
2021/10/05 14:04:36;;;;;;;3.58;2.45;;;;;;;;;;5003085;28;20018;-62
2021/10/05 14:07:02;;;;;;;2.83;2.03;;;;;;;;;;5001553;28;20033;-61
2021/10/05 14:09:27;;;;;;;6.03;2.67;;;;;;;;;;5003466;28;20029;-63
2021/10/05 14:11:52;;;;;;;3.10;2.22;;;;;;;;;;5001553;28;20462;-61
2021/10/05 14:14:19;;;;;;;4.18;2.50;;;;;;;;;;5002143;28;20034;-62
2021/10/05 14:16:44;;;;;;;3.85;2.17;;;;;;;;;;5002133;28;20048;-62
2021/10/05 14:19:09;;;;;;;2.80;2.10;;;;;;;;;;5003344;28;20465;-62
2021/10/05 14:21:35;;;;;;;3.03;1.77;;;;;;;;;;5000740;28;20083;-63